createdAt,value
2017-04-28T00:00:58.366Z,1009.97
2017-04-28T00:02:08.373Z,1009.97
2017-04-28T00:03:18.918Z,1009.97
2017-04-28T00:04:29.145Z,1010
2017-04-28T00:05:39.119Z,1010
2017-04-28T00:06:49.400Z,1010.01
2017-04-28T00:07:59.681Z,1010
2017-04-28T00:09:09.974Z,1009.95
2017-04-28T00:10:20.509Z,1009.97
2017-04-28T00:11:30.479Z,1009.95
2017-04-28T00:12:40.756Z,1009.96
2017-04-28T00:13:50.428Z,1009.93
2017-04-28T00:15:00.097Z,1009.92
2017-04-28T00:16:10.686Z,1009.92
2017-04-28T00:17:20.654Z,1009.91
2017-04-28T00:18:30.936Z,1009.93
2017-04-28T00:19:41.227Z,1009.92
2017-04-28T00:20:50.892Z,1009.85
2017-04-28T00:22:01.473Z,1009.85
2017-04-28T00:23:11.759Z,1009.85
2017-04-28T00:24:22.055Z,1009.83
2017-04-28T00:25:32.344Z,1009.85
2017-04-28T00:26:42.336Z,1009.87
2017-04-28T00:27:52.926Z,1009.85
2017-04-28T00:29:03.217Z,1009.86
2017-04-28T00:30:13.203Z,1009.83
2017-04-28T00:31:23.483Z,1009.85
2017-04-28T00:32:33.771Z,1009.86
2017-04-28T00:33:44.314Z,1009.84
2017-04-28T00:34:54.596Z,1009.86
2017-04-28T00:36:04.885Z,1009.87
2017-04-28T00:37:14.854Z,1009.89
2017-04-28T00:38:24.828Z,1009.88
2017-04-28T00:39:34.799Z,1009.89
2017-04-28T00:40:45.087Z,1009.91
2017-04-28T00:41:55.065Z,1009.88
2017-04-28T00:43:05.350Z,1009.85
2017-04-28T00:44:15.323Z,1009.85
2017-04-28T00:45:25.241Z,1009.84
2017-04-28T00:46:35.758Z,1009.83
2017-04-28T00:47:45.731Z,1009.85
2017-04-28T00:48:56.021Z,1009.83
2017-04-28T00:50:05.378Z,1009.85
2017-04-28T00:51:15.594Z,1009.81
2017-04-28T00:52:25.876Z,1009.79
2017-04-28T00:53:35.853Z,1009.8
2017-04-28T00:54:46.153Z,1009.82
2017-04-28T00:55:56.438Z,1009.82
2017-04-28T00:57:06.977Z,1009.79
2017-04-28T00:58:17.255Z,1009.79
2017-04-28T00:59:26.921Z,1009.81
2017-04-28T01:00:36.902Z,1009.82
2017-04-28T01:01:46.900Z,1009.77
2017-04-28T01:02:57.123Z,1009.79
2017-04-28T01:04:07.423Z,1009.82
2017-04-28T01:05:17.729Z,1009.79
2017-04-28T01:06:27.707Z,1009.8
2017-04-28T01:07:37.989Z,1009.78
2017-04-28T01:08:48.277Z,1009.74
2017-04-28T01:09:58.261Z,1009.78
2017-04-28T01:11:08.546Z,1009.75
2017-04-28T01:12:18.838Z,1009.72
2017-04-28T01:13:29.120Z,1009.78
2017-04-28T01:14:39.346Z,1009.77
2017-04-28T01:15:49.636Z,1009.74
2017-04-28T01:16:59.607Z,1009.74
2017-04-28T01:18:09.887Z,1009.75
2017-04-28T01:19:20.186Z,1009.74
2017-04-28T01:20:30.782Z,1009.75
2017-04-28T01:21:41.057Z,1009.75
2017-04-28T01:22:51.346Z,1009.76
2017-04-28T01:24:01.320Z,1009.78
2017-04-28T01:25:11.603Z,1009.76
2017-04-28T01:26:22.135Z,1009.77
2017-04-28T01:27:32.426Z,1009.71
2017-04-28T01:28:42.703Z,1009.69
2017-04-28T01:29:53.001Z,1009.7
2017-04-28T01:31:03.286Z,1009.75
2017-04-28T01:32:13.821Z,1009.73
2017-04-28T01:33:24.105Z,1009.73
2017-04-28T01:34:34.083Z,1009.75
2017-04-28T01:35:44.054Z,1009.76
2017-04-28T01:36:54.030Z,1009.79
2017-04-28T01:38:04.562Z,1009.79
2017-04-28T01:39:14.530Z,1009.76
2017-04-28T01:40:24.814Z,1009.79
2017-04-28T01:41:34.789Z,1009.82
2017-04-28T01:42:44.765Z,1009.82
2017-04-28T01:43:55.297Z,1009.87
2017-04-28T01:45:05.273Z,1009.87
2017-04-28T01:46:15.243Z,1009.89
2017-04-28T01:47:25.220Z,1009.83
2017-04-28T01:48:35.189Z,1009.78
2017-04-28T01:49:45.427Z,1009.75
2017-04-28T01:50:55.082Z,1009.72
2017-04-28T01:52:05.059Z,1009.67
2017-04-28T01:53:15.041Z,1009.68
2017-04-28T01:54:25.016Z,1009.69
2017-04-28T01:55:35.564Z,1009.73
2017-04-28T01:56:45.842Z,1009.77
2017-04-28T01:57:56.136Z,1009.75
2017-04-28T01:59:06.435Z,1009.71
2017-04-28T02:00:16.719Z,1009.73
2017-04-28T02:01:26.987Z,1009.72
2017-04-28T02:02:37.258Z,1009.68
2017-04-28T02:03:47.232Z,1009.65
2017-04-28T02:04:57.528Z,1009.65
2017-04-28T02:06:07.504Z,1009.68
2017-04-28T02:07:18.036Z,1009.7
2017-04-28T02:08:28.317Z,1009.68
2017-04-28T02:09:38.602Z,1009.68
2017-04-28T02:10:48.895Z,1009.69
2017-04-28T02:11:59.186Z,1009.7
2017-04-28T02:13:09.412Z,1009.67
2017-04-28T02:14:19.706Z,1009.65
2017-04-28T02:15:29.687Z,1009.61
2017-04-28T02:16:39.983Z,1009.6
2017-04-28T02:17:50.271Z,1009.58
2017-04-28T02:19:00.806Z,1009.58
2017-04-28T02:20:11.097Z,1009.58
2017-04-28T02:21:21.073Z,1009.55
2017-04-28T02:22:31.459Z,1009.57
2017-04-28T02:23:41.433Z,1009.53
2017-04-28T02:24:51.974Z,1009.54
2017-04-28T02:26:01.952Z,1009.47
2017-04-28T02:27:11.928Z,1009.49
2017-04-28T02:28:21.901Z,1009.45
2017-04-28T02:29:31.894Z,1009.43
2017-04-28T02:30:42.480Z,1009.41
2017-04-28T02:31:52.144Z,1009.39
2017-04-28T02:33:01.807Z,1009.43
2017-04-28T02:34:12.095Z,1009.38
2017-04-28T02:35:21.761Z,1009.36
2017-04-28T02:36:32.297Z,1009.36
2017-04-28T02:37:41.999Z,1009.36
2017-04-28T02:38:52.275Z,1009.38
2017-04-28T02:40:02.568Z,1009.32
2017-04-28T02:41:12.850Z,1009.34
2017-04-28T02:42:22.756Z,1009.35
2017-04-28T02:43:32.422Z,1009.35
2017-04-28T02:44:42.709Z,1009.34
2017-04-28T02:45:53.141Z,1009.32
2017-04-28T02:47:03.432Z,1009.35
2017-04-28T02:48:13.663Z,1009.33
2017-04-28T02:49:23.942Z,1009.33
2017-04-28T02:50:33.926Z,1009.35
2017-04-28T02:51:44.211Z,1009.38
2017-04-28T02:52:54.505Z,1009.38
2017-04-28T02:54:04.776Z,1009.39
2017-04-28T02:55:15.217Z,1009.39
2017-04-28T02:56:25.195Z,1009.38
2017-04-28T02:57:34.855Z,1009.38
2017-04-28T02:58:45.138Z,1009.39
2017-04-28T02:59:55.725Z,1009.41
2017-04-28T03:01:05.698Z,1009.37
2017-04-28T03:02:15.675Z,1009.38
2017-04-28T03:03:25.955Z,1009.38
2017-04-28T03:04:35.625Z,1009.36
2017-04-28T03:05:45.847Z,1009.32
2017-04-28T03:06:55.813Z,1009.34
2017-04-28T03:08:06.093Z,1009.29
2017-04-28T03:09:16.380Z,1009.27
2017-04-28T03:10:26.357Z,1009.24
2017-04-28T03:11:36.625Z,1009.22
2017-04-28T03:12:46.911Z,1009.2
2017-04-28T03:13:57.195Z,1009.21
2017-04-28T03:15:06.862Z,1009.2
2017-04-28T03:16:16.840Z,1009.21
2017-04-28T03:17:27.376Z,1009.2
2017-04-28T03:18:37.666Z,1009.17
2017-04-28T03:19:47.954Z,1009.16
2017-04-28T03:20:57.933Z,1009.16
2017-04-28T03:22:07.894Z,1009.1
2017-04-28T03:23:18.429Z,1009.13
2017-04-28T03:24:28.408Z,1009.13
2017-04-28T03:25:38.698Z,1009.17
2017-04-28T03:26:48.985Z,1009.13
2017-04-28T03:27:59.283Z,1009.18
2017-04-28T03:29:09.828Z,1009.17
2017-04-28T03:30:20.119Z,1009.16
2017-04-28T03:31:30.087Z,1009.18
2017-04-28T03:32:40.369Z,1009.14
2017-04-28T03:33:50.334Z,1009.17
2017-04-28T03:35:00.573Z,1009.15
2017-04-28T03:36:10.545Z,1009.17
2017-04-28T03:37:20.832Z,1009.16
2017-04-28T03:38:30.499Z,1009.12
2017-04-28T03:39:40.461Z,1009.13
2017-04-28T03:40:50.366Z,1009.17
2017-04-28T03:42:00.342Z,1009.16
2017-04-28T03:43:10.316Z,1009.15
2017-04-28T03:44:20.293Z,1009.18
2017-04-28T03:45:30.584Z,1009.17
2017-04-28T03:46:40.808Z,1009.18
2017-04-28T03:47:51.090Z,1009.21
2017-04-28T03:49:01.389Z,1009.2
2017-04-28T03:50:11.689Z,1009.18
2017-04-28T03:51:21.669Z,1009.15
2017-04-28T03:52:32.201Z,1009.16
2017-04-28T03:53:42.500Z,1009.16
2017-04-28T03:54:52.800Z,1009.19
2017-04-28T03:56:02.765Z,1009.2
2017-04-28T03:57:13.044Z,1009.21
2017-04-28T03:58:23.633Z,1009.21
2017-04-28T03:59:33.921Z,1009.21
2017-04-28T04:00:44.233Z,1009.23
2017-04-28T04:01:54.551Z,1009.26
2017-04-28T04:03:04.832Z,1009.25
2017-04-28T04:04:15.357Z,1009.25
2017-04-28T04:05:25.649Z,1009.27
2017-04-28T04:06:35.947Z,1009.25
2017-04-28T04:07:45.915Z,1009.25
2017-04-28T04:08:56.202Z,1009.29
2017-04-28T04:10:06.739Z,1009.25
2017-04-28T04:11:17.015Z,1009.26
2017-04-28T04:12:27.301Z,1009.33
2017-04-28T04:13:37.607Z,1009.3
2017-04-28T04:14:47.905Z,1009.28
2017-04-28T04:15:58.187Z,1009.27
2017-04-28T04:17:08.157Z,1009.27
2017-04-28T04:18:18.435Z,1009.27
2017-04-28T04:19:28.735Z,1009.29
2017-04-28T04:20:39.013Z,1009.29
2017-04-28T04:21:49.287Z,1009.32
2017-04-28T04:22:59.563Z,1009.33
2017-04-28T04:24:09.219Z,1009.3
2017-04-28T04:25:19.500Z,1009.32
2017-04-28T04:26:29.784Z,1009.35
2017-04-28T04:27:40.044Z,1009.25
2017-04-28T04:28:50.324Z,1009.26
2017-04-28T04:30:00.297Z,1009.28
2017-04-28T04:31:10.591Z,1009.28
2017-04-28T04:32:20.574Z,1009.27
2017-04-28T04:33:31.157Z,1009.24
2017-04-28T04:34:41.446Z,1009.24
2017-04-28T04:35:51.732Z,1009.26
2017-04-28T04:37:01.708Z,1009.3
2017-04-28T04:38:11.994Z,1009.3
2017-04-28T04:39:22.531Z,1009.28
2017-04-28T04:40:32.806Z,1009.31
2017-04-28T04:41:43.091Z,1009.29
2017-04-28T04:42:53.368Z,1009.31
2017-04-28T04:44:03.025Z,1009.28
2017-04-28T04:45:13.578Z,1009.26
2017-04-28T04:46:23.546Z,1009.29
2017-04-28T04:47:33.860Z,1009.28
2017-04-28T04:48:43.521Z,1009.25
2017-04-28T04:49:53.808Z,1009.26
2017-04-28T04:51:04.078Z,1009.24
2017-04-28T04:52:14.363Z,1009.24
2017-04-28T04:53:24.659Z,1009.2
2017-04-28T04:54:34.036Z,1009.21
2017-04-28T04:55:43.384Z,1009.19
2017-04-28T04:56:53.971Z,1009.2
2017-04-28T04:58:03.951Z,1009.19
2017-04-28T04:59:14.235Z,1009.18
2017-04-28T05:00:24.219Z,1009.17
2017-04-28T05:01:34.505Z,1009.15
2017-04-28T05:02:44.734Z,1009.12
2017-04-28T05:03:55.081Z,1009.14
2017-04-28T05:05:05.058Z,1009.13
2017-04-28T05:06:15.343Z,1009.16
2017-04-28T05:07:25.638Z,1009.1
2017-04-28T05:08:36.182Z,1009.13
2017-04-28T05:09:46.471Z,1009.11
2017-04-28T05:10:56.773Z,1009.06
2017-04-28T05:12:07.054Z,1009.08
2017-04-28T05:13:17.344Z,1009.06
2017-04-28T05:14:27.940Z,1009.08
2017-04-28T05:15:38.235Z,1009.07
2017-04-28T05:16:48.206Z,1009.11
2017-04-28T05:17:58.184Z,1009.06
2017-04-28T05:19:08.464Z,1009.06
2017-04-28T05:20:19.013Z,1009.06
2017-04-28T05:21:29.004Z,1009.01
2017-04-28T05:22:38.987Z,1009.06
2017-04-28T05:23:48.967Z,1009.06
2017-04-28T05:24:59.273Z,1009.09
2017-04-28T05:26:09.808Z,1009.09
2017-04-28T05:27:20.106Z,1009.1
2017-04-28T05:28:30.089Z,1009.09
2017-04-28T05:29:40.387Z,1009.09
2017-04-28T05:30:50.555Z,1009.12
2017-04-28T05:32:01.194Z,1009.09
2017-04-28T05:33:11.176Z,1009.05
2017-04-28T05:34:21.162Z,1009.04
2017-04-28T05:35:31.669Z,1009.03
2017-04-28T05:36:41.961Z,1009.04
2017-04-28T05:37:51.893Z,1009.03
2017-04-28T05:39:01.880Z,1009.04
2017-04-28T05:40:12.178Z,1009.1
2017-04-28T05:41:22.473Z,1009.1
2017-04-28T05:42:32.774Z,1009.06
2017-04-28T05:43:43.321Z,1009.1
2017-04-28T05:44:53.623Z,1009.04
2017-04-28T05:46:03.606Z,1009.03
2017-04-28T05:47:13.585Z,1009.05
2017-04-28T05:48:23.913Z,1009.01
2017-04-28T05:49:34.474Z,1009.04
2017-04-28T05:50:44.990Z,1009.03
2017-04-28T05:51:55.271Z,1009.05
2017-04-28T05:53:05.257Z,1009.01
2017-04-28T05:54:15.553Z,1009.02
2017-04-28T05:55:25.797Z,1009.03
2017-04-28T05:56:36.080Z,1009.05
2017-04-28T05:57:46.386Z,1009.05
2017-04-28T05:58:56.393Z,1009.04
2017-04-28T06:00:06.065Z,1009.05
2017-04-28T06:01:16.608Z,1009.09
2017-04-28T06:02:26.909Z,1009.06
2017-04-28T06:03:37.220Z,1009.06
2017-04-28T06:04:47.544Z,1009.08
2017-04-28T06:05:57.218Z,1009.09
2017-04-28T06:07:07.769Z,1009.1
2017-04-28T06:08:18.069Z,1009.14
2017-04-28T06:09:28.065Z,1009.14
2017-04-28T06:10:38.358Z,1009.13
2017-04-28T06:11:48.657Z,1009.13
2017-04-28T06:12:59.196Z,1009.21
2017-04-28T06:14:09.494Z,1009.18
2017-04-28T06:15:19.789Z,1009.17
2017-04-28T06:16:29.776Z,1009.23
2017-04-28T06:17:40.080Z,1009.22
2017-04-28T06:18:50.002Z,1009.23
2017-04-28T06:19:59.995Z,1009.26
2017-04-28T06:21:09.901Z,1009.27
2017-04-28T06:22:19.888Z,1009.26
2017-04-28T06:23:30.174Z,1009.31
2017-04-28T06:24:40.744Z,1009.31
2017-04-28T06:25:51.049Z,1009.27
2017-04-28T06:27:01.034Z,1009.27
2017-04-28T06:28:11.021Z,1009.29
2017-04-28T06:29:21.321Z,1009.27
2017-04-28T06:30:31.570Z,1009.26
2017-04-28T06:31:41.876Z,1009.26
2017-04-28T06:32:52.203Z,1009.26
2017-04-28T06:34:02.510Z,1009.32
2017-04-28T06:35:12.814Z,1009.31
2017-04-28T06:36:23.352Z,1009.3
2017-04-28T06:37:33.649Z,1009.32
2017-04-28T06:38:43.957Z,1009.34
2017-04-28T06:39:54.271Z,1009.31
2017-04-28T06:41:04.274Z,1009.32
2017-04-28T06:42:14.814Z,1009.3
2017-04-28T06:43:25.127Z,1009.31
2017-04-28T06:44:35.431Z,1009.34
2017-04-28T06:45:45.757Z,1009.3
2017-04-28T06:46:56.052Z,1009.3
2017-04-28T06:48:06.628Z,1009.29
2017-04-28T06:49:16.924Z,1009.24
2017-04-28T06:50:27.229Z,1009.24
2017-04-28T06:51:37.525Z,1009.24
2017-04-28T06:52:47.510Z,1009.21
2017-04-28T06:53:58.075Z,1009.24
2017-04-28T06:55:08.370Z,1009.21
2017-04-28T06:56:18.678Z,1009.23
2017-04-28T06:57:28.669Z,1009.2
2017-04-28T06:58:39.220Z,1009.17
2017-04-28T06:59:49.201Z,1009.16
2017-04-28T07:00:59.554Z,1009.18
2017-04-28T07:02:09.548Z,1009.17
2017-04-28T07:03:19.853Z,1009.17
2017-04-28T07:04:30.172Z,1009.15
2017-04-28T07:05:40.445Z,1009.13
2017-04-28T07:06:50.425Z,1009.11
2017-04-28T07:08:00.119Z,1009.11
2017-04-28T07:09:10.128Z,1009.12
2017-04-28T07:10:20.428Z,1009.1
2017-04-28T07:11:30.968Z,1009.09
2017-04-28T07:12:41.294Z,1009.13
2017-04-28T07:13:51.625Z,1009.08
2017-04-28T07:15:01.989Z,1009.11
2017-04-28T07:16:12.289Z,1009.09
2017-04-28T07:17:22.826Z,1009.07
2017-04-28T07:18:33.125Z,1009.15
2017-04-28T07:19:43.701Z,1009.08
2017-04-28T07:20:53.715Z,1009.08
2017-04-28T07:22:03.705Z,1009.08
2017-04-28T07:23:13.936Z,1009.04
2017-04-28T07:24:24.233Z,1009.05
2017-04-28T07:25:34.218Z,1009.04
2017-04-28T07:26:44.533Z,1009.06
2017-04-28T07:27:54.855Z,1009.03
2017-04-28T07:29:04.800Z,1009.07
2017-04-28T07:30:15.099Z,1009.05
2017-04-28T07:31:24.785Z,1009.06
2017-04-28T07:32:35.107Z,1009.07
2017-04-28T07:33:45.413Z,1009.04
2017-04-28T07:34:55.978Z,1009.03
2017-04-28T07:36:06.277Z,1009.03
2017-04-28T07:37:16.572Z,1009.03
2017-04-28T07:38:26.548Z,1009
2017-04-28T07:39:36.869Z,1009.05
2017-04-28T07:40:47.435Z,1009.01
2017-04-28T07:41:57.775Z,1009.02
2017-04-28T07:43:08.073Z,1009.02
2017-04-28T07:44:18.374Z,1008.99
2017-04-28T07:45:28.090Z,1008.99
2017-04-28T07:46:38.652Z,1008.98
2017-04-28T07:47:48.948Z,1008.93
2017-04-28T07:48:58.944Z,1008.96
2017-04-28T07:50:09.272Z,1008.93
2017-04-28T07:51:19.279Z,1008.95
2017-04-28T07:52:29.526Z,1008.96
2017-04-28T07:53:39.835Z,1008.95
2017-04-28T07:54:50.144Z,1008.93
2017-04-28T07:56:00.370Z,1008.92
2017-04-28T07:57:10.652Z,1008.97
2017-04-28T07:58:21.201Z,1008.95
2017-04-28T07:59:31.193Z,1008.93
2017-04-28T08:00:41.493Z,1008.94
2017-04-28T08:01:51.485Z,1008.9
2017-04-28T08:03:01.784Z,1008.93
2017-04-28T08:04:12.341Z,1008.95
2017-04-28T08:05:22.345Z,1008.93
2017-04-28T08:06:32.325Z,1008.89
2017-04-28T08:07:42.624Z,1008.91
2017-04-28T08:08:52.925Z,1008.9
2017-04-28T08:10:03.526Z,1008.91
2017-04-28T08:11:13.842Z,1008.92
2017-04-28T08:12:24.146Z,1008.94
2017-04-28T08:13:34.466Z,1008.94
2017-04-28T08:14:44.458Z,1008.89
2017-04-28T08:15:55.017Z,1008.9
2017-04-28T08:17:05.031Z,1008.89
2017-04-28T08:18:15.323Z,1008.92
2017-04-28T08:19:25.319Z,1008.93
2017-04-28T08:20:35.019Z,1008.89
2017-04-28T08:21:45.290Z,1008.89
2017-04-28T08:22:54.985Z,1008.89
2017-04-28T08:24:05.283Z,1008.9
2017-04-28T08:25:15.578Z,1008.85
2017-04-28T08:26:25.889Z,1008.8
2017-04-28T08:27:36.134Z,1008.84
2017-04-28T08:28:46.433Z,1008.83
2017-04-28T08:29:56.109Z,1008.75
2017-04-28T08:31:06.095Z,1008.74
2017-04-28T08:32:15.767Z,1008.75
2017-04-28T08:33:26.013Z,1008.72
2017-04-28T08:34:35.997Z,1008.69
2017-04-28T08:35:46.293Z,1008.68
2017-04-28T08:36:56.274Z,1008.68
2017-04-28T08:38:06.580Z,1008.67
2017-04-28T08:39:17.155Z,1008.67
2017-04-28T08:40:27.469Z,1008.66
2017-04-28T08:41:37.459Z,1008.7
2017-04-28T08:42:47.772Z,1008.66
2017-04-28T08:43:58.068Z,1008.69
2017-04-28T08:45:08.611Z,1008.72
2017-04-28T08:46:18.911Z,1008.66
2017-04-28T08:47:29.212Z,1008.71
2017-04-28T08:48:39.501Z,1008.71
2017-04-28T08:49:49.840Z,1008.67
2017-04-28T08:51:00.390Z,1008.66
2017-04-28T08:52:10.701Z,1008.65
2017-04-28T08:53:21.007Z,1008.63
2017-04-28T08:54:31.301Z,1008.59
2017-04-28T08:55:40.986Z,1008.64
2017-04-28T08:56:51.540Z,1008.63
2017-04-28T08:58:01.526Z,1008.6
2017-04-28T08:59:10.877Z,1008.65
2017-04-28T09:00:21.456Z,1008.65
2017-04-28T09:01:31.782Z,1008.61
2017-04-28T09:02:42.348Z,1008.59
2017-04-28T09:03:52.346Z,1008.56
2017-04-28T09:05:02.657Z,1008.55
2017-04-28T09:06:12.968Z,1008.54
2017-04-28T09:07:23.283Z,1008.56
2017-04-28T09:08:33.524Z,1008.58
2017-04-28T09:09:43.551Z,1008.58
2017-04-28T09:10:53.533Z,1008.59
2017-04-28T09:12:03.515Z,1008.59
2017-04-28T09:13:13.844Z,1008.55
2017-04-28T09:14:24.409Z,1008.57
2017-04-28T09:15:34.659Z,1008.53
2017-04-28T09:16:44.352Z,1008.54
2017-04-28T09:17:54.354Z,1008.53
2017-04-28T09:19:04.362Z,1008.53
2017-04-28T09:20:14.909Z,1008.56
2017-04-28T09:21:25.218Z,1008.52
2017-04-28T09:22:35.524Z,1008.53
2017-04-28T09:23:45.816Z,1008.53
2017-04-28T09:24:56.154Z,1008.53
2017-04-28T09:26:06.695Z,1008.49
2017-04-28T09:27:16.707Z,1008.5
2017-04-28T09:28:26.720Z,1008.51
2017-04-28T09:29:37.025Z,1008.52
2017-04-28T09:30:47.356Z,1008.49
2017-04-28T09:31:57.976Z,1008.51
2017-04-28T09:33:08.284Z,1008.5
2017-04-28T09:34:18.273Z,1008.46
2017-04-28T09:35:28.253Z,1008.46
2017-04-28T09:36:38.266Z,1008.49
2017-04-28T09:37:48.201Z,1008.43
2017-04-28T09:38:58.498Z,1008.43
2017-04-28T09:40:08.824Z,1008.42
2017-04-28T09:41:19.156Z,1008.44
2017-04-28T09:42:29.455Z,1008.42
2017-04-28T09:43:39.720Z,1008.44
2017-04-28T09:44:49.723Z,1008.45
2017-04-28T09:46:00.020Z,1008.49
2017-04-28T09:47:10.337Z,1008.48
2017-04-28T09:48:20.651Z,1008.48
2017-04-28T09:49:30.925Z,1008.5
2017-04-28T09:50:41.245Z,1008.5
2017-04-28T09:51:51.625Z,1008.45
2017-04-28T09:53:01.946Z,1008.47
2017-04-28T09:54:11.974Z,1008.51
2017-04-28T09:55:22.589Z,1008.53
2017-04-28T09:56:32.930Z,1008.5
2017-04-28T09:57:42.961Z,1008.49
2017-04-28T09:58:53.267Z,1008.56
2017-04-28T10:00:03.600Z,1008.58
2017-04-28T10:01:13.573Z,1008.58
2017-04-28T10:02:23.797Z,1008.55
2017-04-28T10:03:33.801Z,1008.56
2017-04-28T10:04:43.870Z,1008.53
2017-04-28T10:05:53.870Z,1008.55
2017-04-28T10:07:04.108Z,1008.55
2017-04-28T10:08:14.107Z,1008.55
2017-04-28T10:09:24.092Z,1008.54
2017-04-28T10:10:34.641Z,1008.52
2017-04-28T10:11:44.938Z,1008.53
2017-04-28T10:12:55.525Z,1008.56
2017-04-28T10:14:05.829Z,1008.52
2017-04-28T10:15:15.824Z,1008.53
2017-04-28T10:16:25.832Z,1008.48
2017-04-28T10:17:36.170Z,1008.51
2017-04-28T10:18:46.717Z,1008.5
2017-04-28T10:19:57.037Z,1008.52
2017-04-28T10:21:07.029Z,1008.54
2017-04-28T10:22:17.061Z,1008.49
2017-04-28T10:23:27.474Z,1008.48
2017-04-28T10:24:38.055Z,1008.5
2017-04-28T10:25:47.731Z,1008.5
2017-04-28T10:26:58.097Z,1008.43
2017-04-28T10:28:08.414Z,1008.46
2017-04-28T10:29:18.698Z,1008.44
2017-04-28T10:30:28.958Z,1008.43
2017-04-28T10:31:38.989Z,1008.4
2017-04-28T10:32:49.289Z,1008.4
2017-04-28T10:33:59.272Z,1008.39
2017-04-28T10:35:08.975Z,1008.41
2017-04-28T10:36:19.653Z,1008.36
2017-04-28T10:37:30.039Z,1008.41
2017-04-28T10:38:40.361Z,1008.38
2017-04-28T10:39:50.353Z,1008.37
2017-04-28T10:41:00.692Z,1008.32
2017-04-28T10:42:11.261Z,1008.32
2017-04-28T10:43:21.257Z,1008.29
2017-04-28T10:44:31.568Z,1008.29
2017-04-28T10:45:41.864Z,1008.3
2017-04-28T10:46:52.170Z,1008.31
2017-04-28T10:48:02.721Z,1008.32
2017-04-28T10:49:12.925Z,1008.31
2017-04-28T10:50:22.947Z,1008.29
2017-04-28T10:51:33.272Z,1008.25
2017-04-28T10:52:43.610Z,1008.25
2017-04-28T10:53:53.866Z,1008.2
2017-04-28T10:55:04.427Z,1008.21
2017-04-28T10:56:14.737Z,1008.17
2017-04-28T10:57:24.761Z,1008.19
2017-04-28T10:58:35.088Z,1008.15
2017-04-28T10:59:45.655Z,1008.13
2017-04-28T11:00:55.977Z,1008.15
2017-04-28T11:02:05.965Z,1008.09
2017-04-28T11:03:15.960Z,1008.08
2017-04-28T11:04:26.310Z,1008.08
2017-04-28T11:05:37.208Z,1008.1
2017-04-28T11:06:47.545Z,1008.07
2017-04-28T11:07:57.878Z,1008.07
2017-04-28T11:09:08.182Z,1008.03
2017-04-28T11:10:18.246Z,1008.02
2017-04-28T11:11:28.510Z,1008.01
2017-04-28T11:12:38.807Z,1008.01
2017-04-28T11:13:49.120Z,1008.01
2017-04-28T11:14:59.436Z,1007.97
2017-04-28T11:16:09.748Z,1007.95
2017-04-28T11:17:20.310Z,1007.97
2017-04-28T11:18:30.295Z,1007.93
2017-04-28T11:19:40.647Z,1007.92
2017-04-28T11:20:50.644Z,1007.9
2017-04-28T11:22:00.954Z,1007.92
2017-04-28T11:23:11.551Z,1007.9
2017-04-28T11:24:22.078Z,1007.89
2017-04-28T11:25:32.086Z,1007.87
2017-04-28T11:26:42.461Z,1007.9
2017-04-28T11:27:52.781Z,1007.88
2017-04-28T11:29:03.032Z,1007.9
2017-04-28T11:30:13.334Z,1007.86
2017-04-28T11:31:23.644Z,1007.87
2017-04-28T11:32:33.941Z,1007.86
2017-04-28T11:33:43.943Z,1007.86
2017-04-28T11:34:54.504Z,1007.83
2017-04-28T11:36:04.852Z,1007.86
2017-04-28T11:37:14.865Z,1007.91
2017-04-28T11:38:25.446Z,1007.94
2017-04-28T11:39:35.764Z,1007.9
2017-04-28T11:40:46.022Z,1007.88
2017-04-28T11:41:56.530Z,1007.84
2017-04-28T11:43:07.321Z,1007.85
2017-04-28T11:44:17.349Z,1007.81
2017-04-28T11:45:27.377Z,1007.83
2017-04-28T11:46:37.993Z,1007.8
2017-04-28T11:47:47.703Z,1007.8
2017-04-28T11:48:58.061Z,1007.85
2017-04-28T11:50:08.388Z,1007.85
2017-04-28T11:51:18.718Z,1007.85
2017-04-28T11:52:29.299Z,1007.85
2017-04-28T11:53:39.610Z,1007.89
2017-04-28T11:54:49.628Z,1007.9
2017-04-28T11:55:59.936Z,1007.93
2017-04-28T11:57:10.238Z,1007.95
2017-04-28T11:58:20.795Z,1007.91
2017-04-28T11:59:30.802Z,1007.88
2017-04-28T12:00:41.211Z,1007.9
2017-04-28T12:01:51.546Z,1007.94
2017-04-28T12:03:01.540Z,1007.96
2017-04-28T12:04:12.091Z,1007.97
2017-04-28T12:05:22.081Z,1008.02
2017-04-28T12:06:32.388Z,1008.04
2017-04-28T12:07:42.702Z,1008.04
2017-04-28T12:08:52.992Z,1008.07
2017-04-28T12:10:03.570Z,1008.11
2017-04-28T12:11:13.878Z,1008.07
2017-04-28T12:12:23.862Z,1008.11
2017-04-28T12:13:33.888Z,1008.13
2017-04-28T12:14:44.185Z,1008.17
2017-04-28T12:15:54.442Z,1008.18
2017-04-28T12:17:04.778Z,1008.21
2017-04-28T12:18:15.076Z,1008.2
2017-04-28T12:19:25.078Z,1008.24
2017-04-28T12:20:35.086Z,1008.24
2017-04-28T12:21:45.640Z,1008.3
2017-04-28T12:22:55.940Z,1008.27
2017-04-28T12:24:05.618Z,1008.28
2017-04-28T12:25:15.913Z,1008.3
2017-04-28T12:26:25.899Z,1008.28
2017-04-28T12:27:36.181Z,1008.31
2017-04-28T12:28:46.492Z,1008.31
2017-04-28T12:29:56.466Z,1008.28
2017-04-28T12:31:06.792Z,1008.3
2017-04-28T12:32:16.777Z,1008.25
2017-04-28T12:33:27.331Z,1008.26
2017-04-28T12:34:37.655Z,1008.22
2017-04-28T12:35:47.979Z,1008.2
2017-04-28T12:36:57.654Z,1008.17
2017-04-28T12:38:07.948Z,1008.18
2017-04-28T12:39:18.530Z,1008.16
2017-04-28T12:40:28.832Z,1008.19
2017-04-28T12:41:38.809Z,1008.21
2017-04-28T12:42:49.135Z,1008.19
2017-04-28T12:43:58.818Z,1008.21
2017-04-28T12:45:09.715Z,1008.19
2017-04-28T12:46:20.000Z,1008.2
2017-04-28T12:47:30.302Z,1008.22
2017-04-28T12:48:40.625Z,1008.24
2017-04-28T12:49:50.305Z,1008.25
2017-04-28T12:51:00.861Z,1008.25
2017-04-28T12:52:10.853Z,1008.29
2017-04-28T12:53:21.147Z,1008.28
2017-04-28T12:54:31.138Z,1008.29
2017-04-28T12:55:41.430Z,1008.33
2017-04-28T12:56:51.985Z,1008.34
2017-04-28T12:58:01.969Z,1008.3
2017-04-28T12:59:12.310Z,1008.31
2017-04-28T13:00:22.612Z,1008.28
2017-04-28T13:01:32.608Z,1008.29
2017-04-28T13:02:43.199Z,1008.29
2017-04-28T13:03:53.503Z,1008.29
2017-04-28T13:05:03.802Z,1008.26
2017-04-28T13:06:13.817Z,1008.28
2017-04-28T13:07:24.107Z,1008.27
2017-04-28T13:08:34.662Z,1008.23
2017-04-28T13:09:44.748Z,1008.3
2017-04-28T13:10:55.040Z,1008.29
2017-04-28T13:12:05.339Z,1008.3
2017-04-28T13:13:15.633Z,1008.31
2017-04-28T13:14:26.182Z,1008.28
2017-04-28T13:15:36.171Z,1008.35
2017-04-28T13:16:46.483Z,1008.35
2017-04-28T13:17:56.162Z,1008.33
2017-04-28T13:19:06.469Z,1008.37
2017-04-28T13:20:16.095Z,1008.41
2017-04-28T13:21:26.105Z,1008.41
2017-04-28T13:22:36.400Z,1008.4
2017-04-28T13:23:46.730Z,1008.41
2017-04-28T13:24:57.023Z,1008.44
2017-04-28T13:26:07.283Z,1008.42
2017-04-28T13:27:17.575Z,1008.43
2017-04-28T13:28:27.873Z,1008.37
2017-04-28T13:29:38.174Z,1008.38
2017-04-28T13:30:48.475Z,1008.38
2017-04-28T13:31:59.059Z,1008.33
2017-04-28T13:33:08.736Z,1008.32
2017-04-28T13:34:18.717Z,1008.29
2017-04-28T13:35:29.006Z,1008.27
2017-04-28T13:36:38.672Z,1008.28
2017-04-28T13:37:49.215Z,1008.3
2017-04-28T13:38:59.501Z,1008.29
2017-04-28T13:40:09.819Z,1008.3
2017-04-28T13:41:20.109Z,1008.26
2017-04-28T13:42:30.094Z,1008.28
2017-04-28T13:43:40.642Z,1008.28
2017-04-28T13:44:50.932Z,1008.27
2017-04-28T13:46:01.233Z,1008.27
2017-04-28T13:47:11.532Z,1008.26
2017-04-28T13:48:21.530Z,1008.25
2017-04-28T13:49:32.065Z,1008.25
2017-04-28T13:50:41.725Z,1008.27
2017-04-28T13:51:52.028Z,1008.3
2017-04-28T13:53:02.013Z,1008.28
2017-04-28T13:54:12.003Z,1008.25
2017-04-28T13:55:22.552Z,1008.3
2017-04-28T13:56:32.533Z,1008.27
2017-04-28T13:57:42.845Z,1008.3
2017-04-28T13:58:52.840Z,1008.27
2017-04-28T14:00:03.146Z,1008.25
2017-04-28T14:01:13.724Z,1008.3
2017-04-28T14:02:24.028Z,1008.33
2017-04-28T14:03:34.011Z,1008.34
2017-04-28T14:04:44.302Z,1008.31
2017-04-28T14:05:54.287Z,1008.29
2017-04-28T14:07:04.860Z,1008.34
2017-04-28T14:08:14.539Z,1008.4
2017-04-28T14:09:24.841Z,1008.39
2017-04-28T14:10:35.161Z,1008.41
2017-04-28T14:11:45.464Z,1008.41
2017-04-28T14:12:55.719Z,1008.45